sensor_id;sensor_type;location;lat;lon;timestamp;pressure;altitude;pressure_sealevel;temperature;humidity
58967;BME280;44744;51.894;5.080;2024-03-07T00:01:49;102723.93;;;5.48;89.57
58967;BME280;44744;51.894;5.080;2024-03-07T00:06:50;102723.64;;;5.38;89.34
58967;BME280;44744;51.894;5.080;2024-03-07T00:11:50;102728.39;;;5.31;89.51
58967;BME280;44744;51.894;5.080;2024-03-07T00:16:51;102735.61;;;5.24;89.68
58967;BME280;44744;51.894;5.080;2024-03-07T00:21:58;102739.67;;;5.14;89.84
58967;BME280;44744;51.894;5.080;2024-03-07T00:26:59;102736.51;;;5.15;90.23
58967;BME280;44744;51.894;5.080;2024-03-07T00:32:00;102742.64;;;5.14;90.20
58967;BME280;44744;51.894;5.080;2024-03-07T00:37:01;102744.58;;;5.10;90.05
58967;BME280;44744;51.894;5.080;2024-03-07T00:42:02;102748.79;;;5.06;90.12
58967;BME280;44744;51.894;5.080;2024-03-07T00:47:03;102744.77;;;5.05;90.31
58967;BME280;44744;51.894;5.080;2024-03-07T00:52:04;102744.23;;;5.08;90.65
58967;BME280;44744;51.894;5.080;2024-03-07T00:57:05;102739.50;;;5.08;90.61
58967;BME280;44744;51.894;5.080;2024-03-07T01:02:05;102733.19;;;5.06;90.38
58967;BME280;44744;51.894;5.080;2024-03-07T01:07:07;102727.41;;;5.00;90.02
58967;BME280;44744;51.894;5.080;2024-03-07T01:12:07;102729.52;;;4.92;90.27
58967;BME280;44744;51.894;5.080;2024-03-07T01:17:10;102725.15;;;4.86;90.16
58967;BME280;44744;51.894;5.080;2024-03-07T01:22:10;102725.16;;;4.82;90.22
58967;BME280;44744;51.894;5.080;2024-03-07T01:27:11;102724.64;;;4.77;90.41
58967;BME280;44744;51.894;5.080;2024-03-07T01:32:11;102720.26;;;4.74;90.46
58967;BME280;44744;51.894;5.080;2024-03-07T01:37:12;102710.79;;;4.69;90.57
58967;BME280;44744;51.894;5.080;2024-03-07T01:42:12;102704.65;;;4.63;90.38
58967;BME280;44744;51.894;5.080;2024-03-07T01:47:13;102708.34;;;4.57;90.61
58967;BME280;44744;51.894;5.080;2024-03-07T01:52:18;102705.20;;;4.48;90.36
58967;BME280;44744;51.894;5.080;2024-03-07T01:57:18;102708.33;;;4.43;90.46
58967;BME280;44744;51.894;5.080;2024-03-07T02:02:19;102701.33;;;4.34;90.43
58967;BME280;44744;51.894;5.080;2024-03-07T02:07:20;102695.71;;;4.28;90.64
58967;BME280;44744;51.894;5.080;2024-03-07T02:12:20;102693.08;;;4.25;91.03
58967;BME280;44744;51.894;5.080;2024-03-07T02:17:21;102695.70;;;4.25;91.09
58967;BME280;44744;51.894;5.080;2024-03-07T02:22:21;102692.02;;;4.20;91.07
58967;BME280;44744;51.894;5.080;2024-03-07T02:27:22;102698.15;;;4.14;91.11
58967;BME280;44744;51.894;5.080;2024-03-07T02:32:22;102695.14;;;3.99;91.56
58967;BME280;44744;51.894;5.080;2024-03-07T02:37:23;102693.73;;;3.93;91.67
58967;BME280;44744;51.894;5.080;2024-03-07T02:42:24;102690.73;;;3.85;91.83
58967;BME280;44744;51.894;5.080;2024-03-07T02:47:24;102689.48;;;3.75;92.17
58967;BME280;44744;51.894;5.080;2024-03-07T02:52:25;102685.28;;;3.72;92.58
58967;BME280;44744;51.894;5.080;2024-03-07T02:57:25;102684.23;;;3.74;92.52
58967;BME280;44744;51.894;5.080;2024-03-07T03:02:25;102685.80;;;3.72;92.91
58967;BME280;44744;51.894;5.080;2024-03-07T03:07:26;102682.67;;;3.75;93.17
58967;BME280;44744;51.894;5.080;2024-03-07T03:12:28;102676.19;;;3.77;93.18
58967;BME280;44744;51.894;5.080;2024-03-07T03:17:28;102669.38;;;3.79;93.39
58967;BME280;44744;51.894;5.080;2024-03-07T03:22:29;102665.17;;;3.80;93.76
58967;BME280;44744;51.894;5.080;2024-03-07T03:27:29;102665.00;;;3.81;93.93
58967;BME280;44744;51.894;5.080;2024-03-07T03:32:30;102661.14;;;3.81;94.16
58967;BME280;44744;51.894;5.080;2024-03-07T03:37:30;102654.86;;;3.80;94.74
58967;BME280;44744;51.894;5.080;2024-03-07T03:42:31;102652.75;;;3.80;94.77
58967;BME280;44744;51.894;5.080;2024-03-07T03:47:35;102647.15;;;3.80;94.75
58967;BME280;44744;51.894;5.080;2024-03-07T03:52:36;102644.86;;;3.81;94.79
58967;BME280;44744;51.894;5.080;2024-03-07T03:57:38;102643.48;;;3.84;95.06
58967;BME280;44744;51.894;5.080;2024-03-07T04:02:40;102632.80;;;3.86;94.90
58967;BME280;44744;51.894;5.080;2024-03-07T04:07:41;102628.95;;;3.83;94.64
58967;BME280;44744;51.894;5.080;2024-03-07T04:12:42;102631.40;;;3.79;94.73
58967;BME280;44744;51.894;5.080;2024-03-07T04:17:42;102635.25;;;3.80;94.77
58967;BME280;44744;51.894;5.080;2024-03-07T04:22:44;102634.90;;;3.81;94.77
58967;BME280;44744;51.894;5.080;2024-03-07T04:27:45;102642.07;;;3.79;94.59
58967;BME280;44744;51.894;5.080;2024-03-07T04:32:45;102640.15;;;3.78;94.62
58967;BME280;44744;51.894;5.080;2024-03-07T04:37:45;102639.62;;;3.81;94.78
58967;BME280;44744;51.894;5.080;2024-03-07T04:42:48;102638.04;;;3.78;94.36
58967;BME280;44744;51.894;5.080;2024-03-07T04:47:49;102635.91;;;3.68;94.14
58967;BME280;44744;51.894;5.080;2024-03-07T04:52:50;102632.74;;;3.57;94.22
58967;BME280;44744;51.894;5.080;2024-03-07T04:57:50;102628.35;;;3.52;94.33
58967;BME280;44744;51.894;5.080;2024-03-07T05:02:52;102633.59;;;3.47;94.39
58967;BME280;44744;51.894;5.080;2024-03-07T05:07:52;102635.67;;;3.40;94.28
58967;BME280;44744;51.894;5.080;2024-03-07T05:12:53;102632.66;;;3.34;94.52
58967;BME280;44744;51.894;5.080;2024-03-07T05:17:53;102630.19;;;3.26;94.64
58967;BME280;44744;51.894;5.080;2024-03-07T05:22:56;102628.95;;;3.20;94.77
58967;BME280;44744;51.894;5.080;2024-03-07T05:27:56;102630.14;;;3.16;94.71
58967;BME280;44744;51.894;5.080;2024-03-07T05:32:57;102631.52;;;3.12;94.91
58967;BME280;44744;51.894;5.080;2024-03-07T05:37:58;102628.86;;;3.06;95.33
58967;BME280;44744;51.894;5.080;2024-03-07T05:43:01;102626.91;;;2.98;95.45
58967;BME280;44744;51.894;5.080;2024-03-07T05:48:14;102631.10;;;2.95;95.76
58967;BME280;44744;51.894;5.080;2024-03-07T05:53:16;102632.66;;;2.94;95.80
58967;BME280;44744;51.894;5.080;2024-03-07T05:58:17;102634.04;;;2.92;95.86
58967;BME280;44744;51.894;5.080;2024-03-07T06:03:18;102636.81;;;2.87;96.30
58967;BME280;44744;51.894;5.080;2024-03-07T06:08:22;102633.83;;;2.83;96.70
58967;BME280;44744;51.894;5.080;2024-03-07T06:13:22;102635.73;;;2.81;96.69
58967;BME280;44744;51.894;5.080;2024-03-07T06:18:22;102634.17;;;2.82;96.67
58967;BME280;44744;51.894;5.080;2024-03-07T06:23:23;102634.33;;;2.80;96.72
58967;BME280;44744;51.894;5.080;2024-03-07T06:28:25;102630.30;;;2.78;96.85
58967;BME280;44744;51.894;5.080;2024-03-07T06:33:28;102629.23;;;2.75;97.21
58967;BME280;44744;51.894;5.080;2024-03-07T06:38:29;102633.39;;;2.70;97.55
58967;BME280;44744;51.894;5.080;2024-03-07T06:48:53;102633.73;;;2.69;97.59
58967;BME280;44744;51.894;5.080;2024-03-07T06:53:54;102632.34;;;2.69;97.85
58967;BME280;44744;51.894;5.080;2024-03-07T06:58:56;102633.20;;;2.68;98.27
58967;BME280;44744;51.894;5.080;2024-03-07T07:03:56;102626.40;;;2.69;98.22
58967;BME280;44744;51.894;5.080;2024-03-07T07:08:59;102627.43;;;2.67;98.35
58967;BME280;44744;51.894;5.080;2024-03-07T07:14:05;102632.86;;;2.69;98.43
58967;BME280;44744;51.894;5.080;2024-03-07T07:19:05;102631.83;;;2.71;98.60
58967;BME280;44744;51.894;5.080;2024-03-07T07:24:07;102631.16;;;2.75;98.67
58967;BME280;44744;51.894;5.080;2024-03-07T07:29:07;102635.36;;;2.78;98.70
58967;BME280;44744;51.894;5.080;2024-03-07T07:34:08;102629.63;;;2.81;98.59
58967;BME280;44744;51.894;5.080;2024-03-07T07:39:08;102627.20;;;2.85;98.87
58967;BME280;44744;51.894;5.080;2024-03-07T07:44:16;102627.94;;;2.92;98.79
58967;BME280;44744;51.894;5.080;2024-03-07T07:49:17;102629.02;;;2.98;98.90
58967;BME280;44744;51.894;5.080;2024-03-07T07:54:17;102627.28;;;3.03;98.81
58967;BME280;44744;51.894;5.080;2024-03-07T07:59:18;102622.94;;;3.06;98.87
58967;BME280;44744;51.894;5.080;2024-03-07T08:04:18;102624.18;;;3.12;98.67
58967;BME280;44744;51.894;5.080;2024-03-07T08:09:19;102623.16;;;3.20;98.68
58967;BME280;44744;51.894;5.080;2024-03-07T08:14:20;102616.39;;;3.29;98.58
58967;BME280;44744;51.894;5.080;2024-03-07T08:19:20;102618.70;;;3.41;98.20
58967;BME280;44744;51.894;5.080;2024-03-07T08:24:21;102615.05;;;3.50;97.86
58967;BME280;44744;51.894;5.080;2024-03-07T08:29:21;102616.13;;;3.58;97.54
58967;BME280;44744;51.894;5.080;2024-03-07T08:34:22;102608.27;;;3.69;97.37
58967;BME280;44744;51.894;5.080;2024-03-07T08:39:23;102609.69;;;3.79;96.94
58967;BME280;44744;51.894;5.080;2024-03-07T08:44:23;102606.20;;;3.91;96.81
58967;BME280;44744;51.894;5.080;2024-03-07T08:49:27;102607.09;;;4.01;95.96
58967;BME280;44744;51.894;5.080;2024-03-07T08:54:28;102610.07;;;4.10;95.56
58967;BME280;44744;51.894;5.080;2024-03-07T08:59:28;102601.50;;;4.19;94.30
58967;BME280;44744;51.894;5.080;2024-03-07T09:04:33;102598.34;;;4.29;94.14
58967;BME280;44744;51.894;5.080;2024-03-07T09:09:38;102587.45;;;4.40;93.40
58967;BME280;44744;51.894;5.080;2024-03-07T09:14:39;102584.11;;;4.50;93.10
58967;BME280;44744;51.894;5.080;2024-03-07T09:19:40;102586.36;;;4.64;92.17
58967;BME280;44744;51.894;5.080;2024-03-07T09:24:42;102584.06;;;4.78;91.63
58967;BME280;44744;51.894;5.080;2024-03-07T09:29:43;102578.04;;;4.92;90.82
58967;BME280;44744;51.894;5.080;2024-03-07T09:40:05;102570.59;;;5.12;89.39
58967;BME280;44744;51.894;5.080;2024-03-07T09:45:07;102562.81;;;5.24;89.13
58967;BME280;44744;51.894;5.080;2024-03-07T09:50:09;102565.38;;;5.36;87.35
58967;BME280;44744;51.894;5.080;2024-03-07T09:55:10;102565.52;;;5.45;86.32
58967;BME280;44744;51.894;5.080;2024-03-07T10:00:11;102560.90;;;5.52;85.85
58967;BME280;44744;51.894;5.080;2024-03-07T10:05:22;102559.08;;;5.62;85.85
58967;BME280;44744;51.894;5.080;2024-03-07T10:10:26;102560.23;;;5.72;85.67
58967;BME280;44744;51.894;5.080;2024-03-07T10:15:30;102558.04;;;5.83;85.61
58967;BME280;44744;51.894;5.080;2024-03-07T10:20:31;102549.88;;;5.96;84.66
58967;BME280;44744;51.894;5.080;2024-03-07T10:25:31;102545.38;;;6.12;83.98
58967;BME280;44744;51.894;5.080;2024-03-07T10:30:40;102540.66;;;6.26;82.64
58967;BME280;44744;51.894;5.080;2024-03-07T10:35:41;102533.54;;;6.36;79.64
58967;BME280;44744;51.894;5.080;2024-03-07T10:40:42;102528.18;;;6.44;78.05
58967;BME280;44744;51.894;5.080;2024-03-07T10:45:45;102524.39;;;6.53;76.58
58967;BME280;44744;51.894;5.080;2024-03-07T10:56:42;102515.41;;;6.70;75.81
58967;BME280;44744;51.894;5.080;2024-03-07T11:07:34;102502.92;;;6.98;75.25
58967;BME280;44744;51.894;5.080;2024-03-07T11:12:35;102504.06;;;7.04;72.55
58967;BME280;44744;51.894;5.080;2024-03-07T11:17:36;102499.95;;;7.09;72.05
58967;BME280;44744;51.894;5.080;2024-03-07T11:22:40;102493.02;;;7.14;70.65
58967;BME280;44744;51.894;5.080;2024-03-07T11:27:59;102492.43;;;7.17;70.35
58967;BME280;44744;51.894;5.080;2024-03-07T11:38:31;102475.86;;;7.32;71.84
58967;BME280;44744;51.894;5.080;2024-03-07T11:43:35;102470.36;;;7.47;71.87
58967;BME280;44744;51.894;5.080;2024-03-07T11:48:39;102456.27;;;7.58;71.28
58967;BME280;44744;51.894;5.080;2024-03-07T11:53:50;102449.38;;;7.69;70.14
58967;BME280;44744;51.894;5.080;2024-03-07T11:58:58;102439.34;;;7.69;69.44
58967;BME280;44744;51.894;5.080;2024-03-07T12:04:01;102430.15;;;7.71;69.00
58967;BME280;44744;51.894;5.080;2024-03-07T12:09:06;102423.86;;;7.79;68.77
58967;BME280;44744;51.894;5.080;2024-03-07T12:14:19;102418.68;;;7.82;67.85
58967;BME280;44744;51.894;5.080;2024-03-07T12:19:19;102406.44;;;7.87;68.68
58967;BME280;44744;51.894;5.080;2024-03-07T12:24:22;102396.09;;;7.93;68.61
58967;BME280;44744;51.894;5.080;2024-03-07T12:29:49;102399.31;;;7.92;67.83
58967;BME280;44744;51.894;5.080;2024-03-07T12:34:53;102389.15;;;7.88;68.38
58967;BME280;44744;51.894;5.080;2024-03-07T12:39:54;102388.05;;;7.91;67.48
58967;BME280;44744;51.894;5.080;2024-03-07T12:45:01;102370.38;;;7.85;67.42
58967;BME280;44744;51.894;5.080;2024-03-07T12:50:05;102363.75;;;7.90;68.51
58967;BME280;44744;51.894;5.080;2024-03-07T12:55:07;102356.08;;;7.95;68.12
58967;BME280;44744;51.894;5.080;2024-03-07T13:00:09;102350.55;;;7.99;68.24
58967;BME280;44744;51.894;5.080;2024-03-07T13:10:42;102331.98;;;8.18;68.54
58967;BME280;44744;51.894;5.080;2024-03-07T13:15:49;102327.42;;;8.26;67.00
58967;BME280;44744;51.894;5.080;2024-03-07T13:26:22;102321.68;;;8.23;67.22
58967;BME280;44744;51.894;5.080;2024-03-07T13:31:24;102314.55;;;8.27;67.44
58967;BME280;44744;51.894;5.080;2024-03-07T13:36:26;102309.02;;;8.30;67.30
58967;BME280;44744;51.894;5.080;2024-03-07T13:41:26;102306.21;;;8.36;67.12
58967;BME280;44744;51.894;5.080;2024-03-07T13:46:35;102306.68;;;8.49;67.00
58967;BME280;44744;51.894;5.080;2024-03-07T13:51:40;102306.33;;;8.57;67.23
58967;BME280;44744;51.894;5.080;2024-03-07T14:30:23;102277.89;;;8.34;68.85
58967;BME280;44744;51.894;5.080;2024-03-07T14:36:01;102275.40;;;8.19;69.84
58967;BME280;44744;51.894;5.080;2024-03-07T14:41:04;102268.86;;;8.12;70.59
58967;BME280;44744;51.894;5.080;2024-03-07T14:46:05;102264.73;;;8.07;71.23
58967;BME280;44744;51.894;5.080;2024-03-07T14:51:08;102260.95;;;8.04;71.73
58967;BME280;44744;51.894;5.080;2024-03-07T14:56:34;102258.61;;;7.98;72.02
58967;BME280;44744;51.894;5.080;2024-03-07T15:01:37;102253.95;;;7.94;72.12
58967;BME280;44744;51.894;5.080;2024-03-07T16:21:47;102183.66;;;7.77;74.18
58967;BME280;44744;51.894;5.080;2024-03-07T16:26:49;102176.16;;;7.74;73.79
58967;BME280;44744;51.894;5.080;2024-03-07T16:31:53;102166.77;;;7.69;73.86
58967;BME280;44744;51.894;5.080;2024-03-07T16:36:57;102160.82;;;7.67;73.95
58967;BME280;44744;51.894;5.080;2024-03-07T16:47:48;102149.09;;;7.56;74.34
58967;BME280;44744;51.894;5.080;2024-03-07T16:53:02;102147.85;;;7.48;74.55
58967;BME280;44744;51.894;5.080;2024-03-07T16:58:12;102144.23;;;7.44;74.64
58967;BME280;44744;51.894;5.080;2024-03-07T17:03:13;102140.17;;;7.36;74.75
58967;BME280;44744;51.894;5.080;2024-03-07T17:08:19;102141.40;;;7.28;74.97
58967;BME280;44744;51.894;5.080;2024-03-07T17:29:32;102133.05;;;7.14;76.03
58967;BME280;44744;51.894;5.080;2024-03-07T17:45:41;102135.59;;;7.19;76.37
58967;BME280;44744;51.894;5.080;2024-03-07T18:01:20;102145.96;;;7.20;76.41
58967;BME280;44744;51.894;5.080;2024-03-07T18:06:23;102152.78;;;7.13;76.34
58967;BME280;44744;51.894;5.080;2024-03-07T18:11:26;102153.13;;;7.04;76.75
58967;BME280;44744;51.894;5.080;2024-03-07T18:16:35;102149.42;;;6.96;77.07
58967;BME280;44744;51.894;5.080;2024-03-07T18:21:46;102153.41;;;6.89;77.38
58967;BME280;44744;51.894;5.080;2024-03-07T18:27:08;102151.45;;;6.81;77.62
58967;BME280;44744;51.894;5.080;2024-03-07T18:32:13;102145.30;;;6.72;77.87
58967;BME280;44744;51.894;5.080;2024-03-07T18:37:25;102142.30;;;6.61;78.30
58967;BME280;44744;51.894;5.080;2024-03-07T18:42:29;102143.73;;;6.50;78.51
58967;BME280;44744;51.894;5.080;2024-03-07T18:47:31;102142.63;;;6.42;78.89
58967;BME280;44744;51.894;5.080;2024-03-07T18:52:33;102139.61;;;6.34;79.07
58967;BME280;44744;51.894;5.080;2024-03-07T18:57:36;102137.63;;;6.26;79.09
58967;BME280;44744;51.894;5.080;2024-03-07T19:02:37;102136.23;;;6.14;79.10
58967;BME280;44744;51.894;5.080;2024-03-07T19:07:44;102135.64;;;6.07;79.28
58967;BME280;44744;51.894;5.080;2024-03-07T19:12:45;102133.64;;;6.00;79.16
58967;BME280;44744;51.894;5.080;2024-03-07T19:17:47;102128.64;;;5.93;79.02
58967;BME280;44744;51.894;5.080;2024-03-07T19:22:58;102130.35;;;5.83;79.13
58967;BME280;44744;51.894;5.080;2024-03-07T19:33:26;102133.65;;;5.73;79.27
58967;BME280;44744;51.894;5.080;2024-03-07T19:38:54;102136.04;;;5.66;79.42
58967;BME280;44744;51.894;5.080;2024-03-07T19:49:01;102133.52;;;5.57;79.60
58967;BME280;44744;51.894;5.080;2024-03-07T19:54:10;102132.75;;;5.50;79.72
58967;BME280;44744;51.894;5.080;2024-03-07T19:59:18;102134.23;;;5.43;79.93
58967;BME280;44744;51.894;5.080;2024-03-07T20:04:20;102134.65;;;5.38;80.01
58967;BME280;44744;51.894;5.080;2024-03-07T20:09:24;102132.23;;;5.35;80.21
58967;BME280;44744;51.894;5.080;2024-03-07T20:14:25;102131.55;;;5.33;80.21
58967;BME280;44744;51.894;5.080;2024-03-07T20:19:26;102127.74;;;5.29;80.34
58967;BME280;44744;51.894;5.080;2024-03-07T20:24:29;102119.38;;;5.25;80.49
58967;BME280;44744;51.894;5.080;2024-03-07T20:29:31;102119.83;;;5.17;80.83
58967;BME280;44744;51.894;5.080;2024-03-07T20:34:49;102117.82;;;5.09;81.27
58967;BME280;44744;51.894;5.080;2024-03-07T20:39:52;102118.06;;;5.03;81.36
58967;BME280;44744;51.894;5.080;2024-03-07T20:44:54;102114.45;;;4.97;81.70
58967;BME280;44744;51.894;5.080;2024-03-07T20:49:55;102112.40;;;4.92;81.77
58967;BME280;44744;51.894;5.080;2024-03-07T20:54:58;102109.63;;;4.89;81.82
58967;BME280;44744;51.894;5.080;2024-03-07T21:00:05;102108.79;;;4.86;82.04
58967;BME280;44744;51.894;5.080;2024-03-07T21:05:08;102108.46;;;4.84;82.13
58967;BME280;44744;51.894;5.080;2024-03-07T21:10:11;102105.70;;;4.80;82.11
58967;BME280;44744;51.894;5.080;2024-03-07T21:15:24;102101.19;;;4.75;82.37
58967;BME280;44744;51.894;5.080;2024-03-07T21:20:27;102095.82;;;4.69;82.54
58967;BME280;44744;51.894;5.080;2024-03-07T21:25:28;102094.83;;;4.63;82.58
58967;BME280;44744;51.894;5.080;2024-03-07T21:30:31;102094.34;;;4.58;82.86
58967;BME280;44744;51.894;5.080;2024-03-07T21:35:31;102093.70;;;4.54;82.95
58967;BME280;44744;51.894;5.080;2024-03-07T21:40:34;102090.41;;;4.49;83.04
58967;BME280;44744;51.894;5.080;2024-03-07T21:45:35;102085.02;;;4.46;83.29
58967;BME280;44744;51.894;5.080;2024-03-07T21:50:37;102083.84;;;4.40;83.50
58967;BME280;44744;51.894;5.080;2024-03-07T21:55:42;102079.33;;;4.35;83.55
58967;BME280;44744;51.894;5.080;2024-03-07T22:00:43;102078.52;;;4.28;83.97
58967;BME280;44744;51.894;5.080;2024-03-07T22:05:43;102071.37;;;4.24;83.95
58967;BME280;44744;51.894;5.080;2024-03-07T22:10:49;102067.02;;;4.21;83.95
58967;BME280;44744;51.894;5.080;2024-03-07T22:16:10;102065.14;;;4.17;83.91
58967;BME280;44744;51.894;5.080;2024-03-07T22:21:11;102060.95;;;4.14;83.97
58967;BME280;44744;51.894;5.080;2024-03-07T22:26:13;102060.13;;;4.09;84.12
58967;BME280;44744;51.894;5.080;2024-03-07T22:41:45;102053.94;;;3.97;84.36
58967;BME280;44744;51.894;5.080;2024-03-07T22:46:50;102051.86;;;3.92;84.37
58967;BME280;44744;51.894;5.080;2024-03-07T22:51:56;102045.61;;;3.85;84.46
58967;BME280;44744;51.894;5.080;2024-03-07T22:57:07;102037.08;;;3.81;84.50
58967;BME280;44744;51.894;5.080;2024-03-07T23:02:12;102028.70;;;3.77;84.58
58967;BME280;44744;51.894;5.080;2024-03-07T23:07:20;102026.98;;;3.75;84.53
58967;BME280;44744;51.894;5.080;2024-03-07T23:12:23;102023.50;;;3.71;84.54
58967;BME280;44744;51.894;5.080;2024-03-07T23:17:32;102026.67;;;3.69;84.55
58967;BME280;44744;51.894;5.080;2024-03-07T23:22:42;102021.43;;;3.65;84.40
58967;BME280;44744;51.894;5.080;2024-03-07T23:27:47;102017.11;;;3.62;84.46
58967;BME280;44744;51.894;5.080;2024-03-07T23:32:57;102012.77;;;3.57;84.57
58967;BME280;44744;51.894;5.080;2024-03-07T23:38:00;102009.10;;;3.54;84.45
58967;BME280;44744;51.894;5.080;2024-03-07T23:43:07;102007.54;;;3.52;84.46
58967;BME280;44744;51.894;5.080;2024-03-07T23:48:12;102007.20;;;3.50;84.40
58967;BME280;44744;51.894;5.080;2024-03-07T23:53:14;102004.79;;;3.47;84.42
58967;BME280;44744;51.894;5.080;2024-03-07T23:58:16;102000.08;;;3.44;84.58
